sensor_id;sensor_type;location;lat;lon;timestamp;P1;durP1;ratioP1;P2;durP2;ratioP2
31770;SDS011;18343;50.152;8.182;2023-04-29T00:02:22;9.60;;;6.22;;
31770;SDS011;18343;50.152;8.182;2023-04-29T00:05:19;12.05;;;6.40;;
31770;SDS011;18343;50.152;8.182;2023-04-29T00:08:36;13.48;;;6.40;;
31770;SDS011;18343;50.152;8.182;2023-04-29T00:11:25;9.40;;;6.30;;
31770;SDS011;18343;50.152;8.182;2023-04-29T00:14:11;8.70;;;5.00;;
31770;SDS011;18343;50.152;8.182;2023-04-29T00:16:56;7.35;;;4.75;;
31770;SDS011;18343;50.152;8.182;2023-04-29T00:19:52;6.50;;;4.30;;
31770;SDS011;18343;50.152;8.182;2023-04-29T00:22:38;9.95;;;4.43;;
31770;SDS011;18343;50.152;8.182;2023-04-29T00:25:23;8.93;;;4.35;;
31770;SDS011;18343;50.152;8.182;2023-04-29T00:28:08;9.13;;;3.85;;
31770;SDS011;18343;50.152;8.182;2023-04-29T00:30:54;8.98;;;3.50;;
31770;SDS011;18343;50.152;8.182;2023-04-29T00:33:39;4.78;;;3.20;;
31770;SDS011;18343;50.152;8.182;2023-04-29T00:36:24;14.38;;;3.92;;
31770;SDS011;18343;50.152;8.182;2023-04-29T00:39:09;3.92;;;3.15;;
31770;SDS011;18343;50.152;8.182;2023-04-29T00:41:53;4.93;;;2.72;;
31770;SDS011;18343;50.152;8.182;2023-04-29T00:44:38;7.63;;;2.95;;
31770;SDS011;18343;50.152;8.182;2023-04-29T00:47:24;9.65;;;3.60;;
31770;SDS011;18343;50.152;8.182;2023-04-29T00:50:09;4.75;;;3.05;;
31770;SDS011;18343;50.152;8.182;2023-04-29T00:52:54;9.45;;;4.18;;
31770;SDS011;18343;50.152;8.182;2023-04-29T00:55:39;15.57;;;4.18;;
31770;SDS011;18343;50.152;8.182;2023-04-29T00:58:26;6.03;;;4.05;;
31770;SDS011;18343;50.152;8.182;2023-04-29T01:01:12;6.20;;;4.10;;
31770;SDS011;18343;50.152;8.182;2023-04-29T01:03:58;4.85;;;3.45;;
31770;SDS011;18343;50.152;8.182;2023-04-29T01:06:47;3.85;;;3.25;;
31770;SDS011;18343;50.152;8.182;2023-04-29T01:09:49;8.48;;;3.42;;
31770;SDS011;18343;50.152;8.182;2023-04-29T01:12:45;5.88;;;3.15;;
31770;SDS011;18343;50.152;8.182;2023-04-29T01:15:37;7.65;;;3.35;;
31770;SDS011;18343;50.152;8.182;2023-04-29T01:18:31;11.23;;;3.80;;
31770;SDS011;18343;50.152;8.182;2023-04-29T01:21:20;5.93;;;4.25;;
31770;SDS011;18343;50.152;8.182;2023-04-29T01:24:06;7.55;;;4.63;;
31770;SDS011;18343;50.152;8.182;2023-04-29T01:26:54;8.93;;;5.60;;
31770;SDS011;18343;50.152;8.182;2023-04-29T01:29:46;6.65;;;5.95;;
31770;SDS011;18343;50.152;8.182;2023-04-29T01:32:42;13.02;;;6.22;;
31770;SDS011;18343;50.152;8.182;2023-04-29T01:35:39;9.05;;;7.00;;
31770;SDS011;18343;50.152;8.182;2023-04-29T01:38:36;7.45;;;6.10;;
31770;SDS011;18343;50.152;8.182;2023-04-29T01:41:30;8.63;;;7.32;;
31770;SDS011;18343;50.152;8.182;2023-04-29T01:44:27;8.95;;;6.60;;
31770;SDS011;18343;50.152;8.182;2023-04-29T01:47:13;8.35;;;6.80;;
31770;SDS011;18343;50.152;8.182;2023-04-29T01:49:57;12.95;;;8.40;;
31770;SDS011;18343;50.152;8.182;2023-04-29T01:52:42;9.52;;;6.55;;
31770;SDS011;18343;50.152;8.182;2023-04-29T01:55:35;8.45;;;6.75;;
31770;SDS011;18343;50.152;8.182;2023-04-29T01:58:30;8.35;;;7.30;;
31770;SDS011;18343;50.152;8.182;2023-04-29T02:01:15;7.80;;;6.50;;
31770;SDS011;18343;50.152;8.182;2023-04-29T02:03:59;8.45;;;7.13;;
31770;SDS011;18343;50.152;8.182;2023-04-29T02:06:44;8.40;;;6.50;;
31770;SDS011;18343;50.152;8.182;2023-04-29T02:09:29;8.95;;;6.90;;
31770;SDS011;18343;50.152;8.182;2023-04-29T02:12:13;9.70;;;6.95;;
31770;SDS011;18343;50.152;8.182;2023-04-29T02:14:59;7.72;;;6.88;;
31770;SDS011;18343;50.152;8.182;2023-04-29T02:17:44;11.25;;;7.72;;
31770;SDS011;18343;50.152;8.182;2023-04-29T02:20:29;8.75;;;7.78;;
31770;SDS011;18343;50.152;8.182;2023-04-29T02:23:14;9.35;;;8.02;;
31770;SDS011;18343;50.152;8.182;2023-04-29T02:25:59;11.38;;;8.15;;
31770;SDS011;18343;50.152;8.182;2023-04-29T02:28:43;10.52;;;7.55;;
31770;SDS011;18343;50.152;8.182;2023-04-29T02:31:29;12.93;;;10.70;;
31770;SDS011;18343;50.152;8.182;2023-04-29T02:34:14;12.80;;;10.43;;
31770;SDS011;18343;50.152;8.182;2023-04-29T02:36:59;18.38;;;12.35;;
31770;SDS011;18343;50.152;8.182;2023-04-29T02:39:43;16.25;;;11.88;;
31770;SDS011;18343;50.152;8.182;2023-04-29T02:42:28;16.38;;;11.70;;
31770;SDS011;18343;50.152;8.182;2023-04-29T02:45:13;19.85;;;12.65;;
31770;SDS011;18343;50.152;8.182;2023-04-29T02:47:59;19.88;;;14.70;;
31770;SDS011;18343;50.152;8.182;2023-04-29T02:50:44;17.35;;;12.88;;
31770;SDS011;18343;50.152;8.182;2023-04-29T02:53:29;20.88;;;13.73;;
31770;SDS011;18343;50.152;8.182;2023-04-29T02:56:13;20.83;;;14.88;;
31770;SDS011;18343;50.152;8.182;2023-04-29T02:58:58;25.23;;;16.98;;
31770;SDS011;18343;50.152;8.182;2023-04-29T03:01:42;22.15;;;15.00;;
31770;SDS011;18343;50.152;8.182;2023-04-29T03:04:28;25.35;;;17.25;;
31770;SDS011;18343;50.152;8.182;2023-04-29T03:07:13;26.10;;;17.38;;
31770;SDS011;18343;50.152;8.182;2023-04-29T03:09:57;29.77;;;20.05;;
31770;SDS011;18343;50.152;8.182;2023-04-29T03:12:42;25.88;;;18.08;;
31770;SDS011;18343;50.152;8.182;2023-04-29T03:15:27;27.17;;;18.35;;
31770;SDS011;18343;50.152;8.182;2023-04-29T03:18:11;28.98;;;20.13;;
31770;SDS011;18343;50.152;8.182;2023-04-29T03:20:58;32.28;;;19.48;;
31770;SDS011;18343;50.152;8.182;2023-04-29T03:23:42;29.50;;;19.55;;
31770;SDS011;18343;50.152;8.182;2023-04-29T03:26:27;32.28;;;20.35;;
31770;SDS011;18343;50.152;8.182;2023-04-29T03:29:11;28.67;;;19.30;;
31770;SDS011;18343;50.152;8.182;2023-04-29T03:31:55;32.70;;;19.25;;
31770;SDS011;18343;50.152;8.182;2023-04-29T03:34:40;28.95;;;19.65;;
31770;SDS011;18343;50.152;8.182;2023-04-29T03:37:26;31.08;;;20.50;;
31770;SDS011;18343;50.152;8.182;2023-04-29T03:40:11;33.45;;;21.05;;
31770;SDS011;18343;50.152;8.182;2023-04-29T03:42:58;30.33;;;20.42;;
31770;SDS011;18343;50.152;8.182;2023-04-29T03:45:42;28.83;;;20.15;;
31770;SDS011;18343;50.152;8.182;2023-04-29T03:48:27;29.55;;;20.35;;
31770;SDS011;18343;50.152;8.182;2023-04-29T03:51:12;26.33;;;18.48;;
31770;SDS011;18343;50.152;8.182;2023-04-29T03:53:58;27.63;;;17.13;;
31770;SDS011;18343;50.152;8.182;2023-04-29T03:56:42;27.35;;;18.52;;
31770;SDS011;18343;50.152;8.182;2023-04-29T03:59:27;29.38;;;19.13;;
31770;SDS011;18343;50.152;8.182;2023-04-29T04:02:11;29.77;;;18.45;;
31770;SDS011;18343;50.152;8.182;2023-04-29T04:04:56;28.42;;;19.08;;
31770;SDS011;18343;50.152;8.182;2023-04-29T04:07:41;24.52;;;17.63;;
31770;SDS011;18343;50.152;8.182;2023-04-29T04:10:27;30.42;;;19.13;;
31770;SDS011;18343;50.152;8.182;2023-04-29T04:13:11;27.92;;;20.05;;
31770;SDS011;18343;50.152;8.182;2023-04-29T04:15:56;26.83;;;18.48;;
31770;SDS011;18343;50.152;8.182;2023-04-29T04:18:41;31.40;;;21.90;;
31770;SDS011;18343;50.152;8.182;2023-04-29T04:21:26;31.73;;;19.58;;
31770;SDS011;18343;50.152;8.182;2023-04-29T04:24:11;30.50;;;19.52;;
31770;SDS011;18343;50.152;8.182;2023-04-29T04:26:56;32.08;;;20.27;;
31770;SDS011;18343;50.152;8.182;2023-04-29T04:29:41;31.65;;;20.27;;
31770;SDS011;18343;50.152;8.182;2023-04-29T04:32:25;33.63;;;20.50;;
31770;SDS011;18343;50.152;8.182;2023-04-29T04:35:10;30.10;;;18.73;;
31770;SDS011;18343;50.152;8.182;2023-04-29T04:37:54;28.50;;;19.15;;
31770;SDS011;18343;50.152;8.182;2023-04-29T04:40:39;28.98;;;19.52;;
31770;SDS011;18343;50.152;8.182;2023-04-29T04:43:25;33.30;;;19.17;;
31770;SDS011;18343;50.152;8.182;2023-04-29T04:46:10;30.40;;;18.95;;
31770;SDS011;18343;50.152;8.182;2023-04-29T04:48:55;29.02;;;18.30;;
31770;SDS011;18343;50.152;8.182;2023-04-29T04:51:42;26.77;;;16.75;;
31770;SDS011;18343;50.152;8.182;2023-04-29T04:54:27;24.08;;;16.60;;
31770;SDS011;18343;50.152;8.182;2023-04-29T04:57:11;26.52;;;17.27;;
31770;SDS011;18343;50.152;8.182;2023-04-29T04:59:57;34.13;;;17.45;;
31770;SDS011;18343;50.152;8.182;2023-04-29T05:02:43;25.92;;;16.77;;
31770;SDS011;18343;50.152;8.182;2023-04-29T05:05:27;26.70;;;16.73;;
31770;SDS011;18343;50.152;8.182;2023-04-29T05:08:12;25.17;;;16.25;;
31770;SDS011;18343;50.152;8.182;2023-04-29T05:10:56;27.38;;;16.35;;
31770;SDS011;18343;50.152;8.182;2023-04-29T05:13:41;26.17;;;15.93;;
31770;SDS011;18343;50.152;8.182;2023-04-29T05:16:27;24.95;;;15.55;;
31770;SDS011;18343;50.152;8.182;2023-04-29T05:19:12;24.52;;;15.65;;
31770;SDS011;18343;50.152;8.182;2023-04-29T05:21:56;24.42;;;15.38;;
31770;SDS011;18343;50.152;8.182;2023-04-29T05:24:41;24.70;;;15.57;;
31770;SDS011;18343;50.152;8.182;2023-04-29T05:27:26;26.70;;;15.93;;
31770;SDS011;18343;50.152;8.182;2023-04-29T05:30:11;26.70;;;15.10;;
31770;SDS011;18343;50.152;8.182;2023-04-29T05:32:57;26.55;;;16.42;;
31770;SDS011;18343;50.152;8.182;2023-04-29T05:36:48;22.40;;;12.57;;
31770;SDS011;18343;50.152;8.182;2023-04-29T05:43:59;17.00;;;11.38;;
31770;SDS011;18343;50.152;8.182;2023-04-29T05:46:44;14.88;;;8.95;;
31770;SDS011;18343;50.152;8.182;2023-04-29T05:49:33;17.98;;;7.88;;
31770;SDS011;18343;50.152;8.182;2023-04-29T05:52:24;18.45;;;11.55;;
31770;SDS011;18343;50.152;8.182;2023-04-29T05:55:10;20.35;;;11.40;;
31770;SDS011;18343;50.152;8.182;2023-04-29T05:57:55;18.63;;;10.98;;
31770;SDS011;18343;50.152;8.182;2023-04-29T06:00:39;18.35;;;10.98;;
31770;SDS011;18343;50.152;8.182;2023-04-29T06:03:24;16.23;;;10.30;;
31770;SDS011;18343;50.152;8.182;2023-04-29T06:06:10;17.00;;;9.80;;
31770;SDS011;18343;50.152;8.182;2023-04-29T06:08:54;18.75;;;11.27;;
31770;SDS011;18343;50.152;8.182;2023-04-29T06:11:39;14.93;;;8.77;;
31770;SDS011;18343;50.152;8.182;2023-04-29T06:14:24;16.15;;;10.18;;
31770;SDS011;18343;50.152;8.182;2023-04-29T06:17:08;16.35;;;10.52;;
31770;SDS011;18343;50.152;8.182;2023-04-29T06:19:54;19.52;;;10.48;;
31770;SDS011;18343;50.152;8.182;2023-04-29T06:22:40;15.32;;;10.52;;
31770;SDS011;18343;50.152;8.182;2023-04-29T06:25:25;16.60;;;9.70;;
31770;SDS011;18343;50.152;8.182;2023-04-29T06:28:11;16.63;;;9.60;;
31770;SDS011;18343;50.152;8.182;2023-04-29T06:30:55;16.70;;;10.63;;
31770;SDS011;18343;50.152;8.182;2023-04-29T06:33:40;16.23;;;10.65;;
31770;SDS011;18343;50.152;8.182;2023-04-29T06:36:25;23.63;;;11.73;;
31770;SDS011;18343;50.152;8.182;2023-04-29T06:39:11;19.60;;;11.73;;
31770;SDS011;18343;50.152;8.182;2023-04-29T06:41:56;21.98;;;11.38;;
31770;SDS011;18343;50.152;8.182;2023-04-29T06:44:40;21.75;;;12.15;;
31770;SDS011;18343;50.152;8.182;2023-04-29T06:47:25;23.70;;;12.43;;
31770;SDS011;18343;50.152;8.182;2023-04-29T06:50:10;21.73;;;12.57;;
31770;SDS011;18343;50.152;8.182;2023-04-29T06:52:54;20.02;;;12.68;;
31770;SDS011;18343;50.152;8.182;2023-04-29T06:55:40;19.13;;;11.88;;
31770;SDS011;18343;50.152;8.182;2023-04-29T06:58:25;21.02;;;13.23;;
31770;SDS011;18343;50.152;8.182;2023-04-29T07:01:14;21.52;;;13.75;;
31770;SDS011;18343;50.152;8.182;2023-04-29T07:03:58;21.67;;;12.90;;
31770;SDS011;18343;50.152;8.182;2023-04-29T07:06:43;23.27;;;13.57;;
31770;SDS011;18343;50.152;8.182;2023-04-29T07:09:28;20.60;;;13.27;;
31770;SDS011;18343;50.152;8.182;2023-04-29T07:12:14;20.05;;;11.85;;
31770;SDS011;18343;50.152;8.182;2023-04-29T07:14:59;20.83;;;13.07;;
31770;SDS011;18343;50.152;8.182;2023-04-29T07:17:43;22.85;;;13.10;;
31770;SDS011;18343;50.152;8.182;2023-04-29T07:20:28;20.50;;;13.10;;
31770;SDS011;18343;50.152;8.182;2023-04-29T07:23:12;21.67;;;12.55;;
31770;SDS011;18343;50.152;8.182;2023-04-29T07:25:57;21.70;;;13.57;;
31770;SDS011;18343;50.152;8.182;2023-04-29T07:28:44;21.98;;;13.68;;
31770;SDS011;18343;50.152;8.182;2023-04-29T07:31:28;24.30;;;13.82;;
31770;SDS011;18343;50.152;8.182;2023-04-29T07:34:13;19.25;;;9.85;;
31770;SDS011;18343;50.152;8.182;2023-04-29T07:36:58;22.98;;;13.25;;
31770;SDS011;18343;50.152;8.182;2023-04-29T07:39:42;21.88;;;13.85;;
31770;SDS011;18343;50.152;8.182;2023-04-29T07:42:27;21.02;;;12.95;;
31770;SDS011;18343;50.152;8.182;2023-04-29T07:45:14;21.55;;;13.20;;
31770;SDS011;18343;50.152;8.182;2023-04-29T07:47:59;24.95;;;13.82;;
31770;SDS011;18343;50.152;8.182;2023-04-29T07:50:46;22.38;;;13.25;;
31770;SDS011;18343;50.152;8.182;2023-04-29T07:53:31;20.67;;;13.05;;
31770;SDS011;18343;50.152;8.182;2023-04-29T07:56:16;18.85;;;12.65;;
31770;SDS011;18343;50.152;8.182;2023-04-29T07:59:00;25.20;;;13.60;;
31770;SDS011;18343;50.152;8.182;2023-04-29T08:01:46;21.13;;;13.35;;
31770;SDS011;18343;50.152;8.182;2023-04-29T08:04:31;22.30;;;11.52;;
31770;SDS011;18343;50.152;8.182;2023-04-29T08:07:16;20.75;;;13.30;;
31770;SDS011;18343;50.152;8.182;2023-04-29T08:10:01;22.00;;;12.35;;
31770;SDS011;18343;50.152;8.182;2023-04-29T08:12:45;19.90;;;12.38;;
31770;SDS011;18343;50.152;8.182;2023-04-29T08:15:30;20.38;;;11.20;;
31770;SDS011;18343;50.152;8.182;2023-04-29T08:18:16;17.33;;;10.10;;
31770;SDS011;18343;50.152;8.182;2023-04-29T08:21:01;14.43;;;9.38;;
31770;SDS011;18343;50.152;8.182;2023-04-29T08:23:45;14.88;;;9.32;;
31770;SDS011;18343;50.152;8.182;2023-04-29T08:26:30;16.23;;;9.20;;
31770;SDS011;18343;50.152;8.182;2023-04-29T08:29:15;13.23;;;8.30;;
31770;SDS011;18343;50.152;8.182;2023-04-29T08:31:59;13.93;;;7.18;;
31770;SDS011;18343;50.152;8.182;2023-04-29T08:34:46;12.98;;;8.85;;
31770;SDS011;18343;50.152;8.182;2023-04-29T08:37:30;12.05;;;8.10;;
31770;SDS011;18343;50.152;8.182;2023-04-29T08:40:15;11.82;;;7.50;;
31770;SDS011;18343;50.152;8.182;2023-04-29T08:43:00;13.38;;;9.25;;
31770;SDS011;18343;50.152;8.182;2023-04-29T08:45:46;11.20;;;7.43;;
31770;SDS011;18343;50.152;8.182;2023-04-29T08:48:32;15.23;;;8.05;;
31770;SDS011;18343;50.152;8.182;2023-04-29T08:51:20;14.40;;;8.32;;
31770;SDS011;18343;50.152;8.182;2023-04-29T08:54:04;11.18;;;7.72;;
31770;SDS011;18343;50.152;8.182;2023-04-29T08:56:49;11.15;;;7.82;;
31770;SDS011;18343;50.152;8.182;2023-04-29T08:59:35;12.43;;;8.25;;
31770;SDS011;18343;50.152;8.182;2023-04-29T09:02:20;15.30;;;7.88;;
31770;SDS011;18343;50.152;8.182;2023-04-29T09:05:08;9.90;;;7.53;;
31770;SDS011;18343;50.152;8.182;2023-04-29T09:07:56;15.23;;;8.10;;
31770;SDS011;18343;50.152;8.182;2023-04-29T09:10:42;10.98;;;6.82;;
31770;SDS011;18343;50.152;8.182;2023-04-29T09:13:28;9.38;;;5.95;;
31770;SDS011;18343;50.152;8.182;2023-04-29T09:16:14;10.98;;;7.00;;
31770;SDS011;18343;50.152;8.182;2023-04-29T09:18:58;10.98;;;7.30;;
31770;SDS011;18343;50.152;8.182;2023-04-29T09:21:44;9.88;;;6.82;;
31770;SDS011;18343;50.152;8.182;2023-04-29T09:24:38;12.38;;;7.60;;
31770;SDS011;18343;50.152;8.182;2023-04-29T09:27:27;10.05;;;7.10;;
31770;SDS011;18343;50.152;8.182;2023-04-29T09:30:12;11.10;;;7.25;;
31770;SDS011;18343;50.152;8.182;2023-04-29T09:33:05;7.55;;;5.57;;
31770;SDS011;18343;50.152;8.182;2023-04-29T09:35:51;14.13;;;6.28;;
31770;SDS011;18343;50.152;8.182;2023-04-29T09:38:36;9.38;;;5.60;;
31770;SDS011;18343;50.152;8.182;2023-04-29T09:41:39;7.70;;;5.28;;
31770;SDS011;18343;50.152;8.182;2023-04-29T09:44:42;11.70;;;5.00;;
31770;SDS011;18343;50.152;8.182;2023-04-29T09:47:28;8.52;;;4.93;;
31770;SDS011;18343;50.152;8.182;2023-04-29T09:50:13;6.95;;;4.65;;
31770;SDS011;18343;50.152;8.182;2023-04-29T09:52:58;8.15;;;4.95;;
31770;SDS011;18343;50.152;8.182;2023-04-29T09:55:57;6.45;;;4.60;;
31770;SDS011;18343;50.152;8.182;2023-04-29T09:58:45;6.57;;;4.90;;
31770;SDS011;18343;50.152;8.182;2023-04-29T10:01:29;8.48;;;4.97;;
31770;SDS011;18343;50.152;8.182;2023-04-29T10:04:15;7.72;;;5.40;;
31770;SDS011;18343;50.152;8.182;2023-04-29T10:07:06;8.30;;;4.85;;
31770;SDS011;18343;50.152;8.182;2023-04-29T10:09:52;7.10;;;5.00;;
31770;SDS011;18343;50.152;8.182;2023-04-29T10:12:38;8.27;;;5.25;;
31770;SDS011;18343;50.152;8.182;2023-04-29T10:15:26;11.40;;;5.90;;
31770;SDS011;18343;50.152;8.182;2023-04-29T10:18:19;7.35;;;5.00;;
31770;SDS011;18343;50.152;8.182;2023-04-29T10:21:06;8.05;;;4.85;;
31770;SDS011;18343;50.152;8.182;2023-04-29T10:23:52;6.13;;;4.35;;
31770;SDS011;18343;50.152;8.182;2023-04-29T10:26:39;7.50;;;5.00;;
31770;SDS011;18343;50.152;8.182;2023-04-29T10:29:25;7.50;;;4.85;;
31770;SDS011;18343;50.152;8.182;2023-04-29T10:32:14;6.22;;;4.85;;
31770;SDS011;18343;50.152;8.182;2023-04-29T10:35:00;7.70;;;5.10;;
31770;SDS011;18343;50.152;8.182;2023-04-29T10:37:46;7.00;;;5.10;;
31770;SDS011;18343;50.152;8.182;2023-04-29T10:40:35;13.23;;;6.10;;
31770;SDS011;18343;50.152;8.182;2023-04-29T10:43:25;12.10;;;6.10;;
31770;SDS011;18343;50.152;8.182;2023-04-29T10:46:16;7.53;;;5.10;;
31770;SDS011;18343;50.152;8.182;2023-04-29T10:49:04;7.80;;;4.93;;
31770;SDS011;18343;50.152;8.182;2023-04-29T10:51:50;5.63;;;3.80;;
31770;SDS011;18343;50.152;8.182;2023-04-29T10:54:34;4.82;;;4.00;;
31770;SDS011;18343;50.152;8.182;2023-04-29T10:57:19;5.05;;;3.75;;
31770;SDS011;18343;50.152;8.182;2023-04-29T11:00:05;5.97;;;4.00;;
31770;SDS011;18343;50.152;8.182;2023-04-29T11:03:04;5.95;;;3.53;;
31770;SDS011;18343;50.152;8.182;2023-04-29T11:06:02;4.40;;;3.42;;
31770;SDS011;18343;50.152;8.182;2023-04-29T11:09:01;4.03;;;3.42;;
31770;SDS011;18343;50.152;8.182;2023-04-29T11:11:57;5.40;;;4.25;;
31770;SDS011;18343;50.152;8.182;2023-04-29T11:14:48;6.03;;;4.18;;
31770;SDS011;18343;50.152;8.182;2023-04-29T11:17:34;5.65;;;3.88;;
31770;SDS011;18343;50.152;8.182;2023-04-29T11:20:19;5.43;;;4.03;;
31770;SDS011;18343;50.152;8.182;2023-04-29T11:23:06;6.00;;;4.45;;
31770;SDS011;18343;50.152;8.182;2023-04-29T11:25:51;4.90;;;3.75;;
31770;SDS011;18343;50.152;8.182;2023-04-29T11:28:37;6.63;;;4.15;;
31770;SDS011;18343;50.152;8.182;2023-04-29T11:31:25;9.07;;;4.80;;
31770;SDS011;18343;50.152;8.182;2023-04-29T11:34:10;7.13;;;4.85;;
31770;SDS011;18343;50.152;8.182;2023-04-29T11:36:54;5.75;;;4.68;;
31770;SDS011;18343;50.152;8.182;2023-04-29T11:39:43;6.05;;;4.65;;
31770;SDS011;18343;50.152;8.182;2023-04-29T11:42:28;6.38;;;5.10;;
31770;SDS011;18343;50.152;8.182;2023-04-29T11:45:12;6.57;;;4.95;;
31770;SDS011;18343;50.152;8.182;2023-04-29T11:47:59;6.78;;;4.80;;
31770;SDS011;18343;50.152;8.182;2023-04-29T11:50:44;7.20;;;4.70;;
31770;SDS011;18343;50.152;8.182;2023-04-29T11:53:31;7.28;;;5.13;;
31770;SDS011;18343;50.152;8.182;2023-04-29T11:56:21;6.68;;;4.90;;
31770;SDS011;18343;50.152;8.182;2023-04-29T11:59:07;7.18;;;5.38;;
31770;SDS011;18343;50.152;8.182;2023-04-29T12:01:51;7.80;;;4.88;;
31770;SDS011;18343;50.152;8.182;2023-04-29T12:04:43;6.65;;;5.25;;
31770;SDS011;18343;50.152;8.182;2023-04-29T12:07:28;9.20;;;5.57;;
31770;SDS011;18343;50.152;8.182;2023-04-29T12:10:13;6.15;;;4.65;;
31770;SDS011;18343;50.152;8.182;2023-04-29T12:12:59;6.43;;;4.93;;
31770;SDS011;18343;50.152;8.182;2023-04-29T12:15:43;8.05;;;6.30;;
31770;SDS011;18343;50.152;8.182;2023-04-29T12:18:30;6.53;;;5.20;;
31770;SDS011;18343;50.152;8.182;2023-04-29T12:21:15;8.25;;;5.38;;
31770;SDS011;18343;50.152;8.182;2023-04-29T12:24:01;6.43;;;5.40;;
31770;SDS011;18343;50.152;8.182;2023-04-29T12:26:48;5.78;;;5.00;;
31770;SDS011;18343;50.152;8.182;2023-04-29T12:29:34;6.00;;;4.93;;
31770;SDS011;18343;50.152;8.182;2023-04-29T12:32:21;5.60;;;4.07;;
31770;SDS011;18343;50.152;8.182;2023-04-29T12:35:13;5.88;;;4.78;;
31770;SDS011;18343;50.152;8.182;2023-04-29T12:37:58;6.03;;;5.32;;
31770;SDS011;18343;50.152;8.182;2023-04-29T12:40:43;5.95;;;5.10;;
31770;SDS011;18343;50.152;8.182;2023-04-29T12:43:28;6.25;;;5.20;;
31770;SDS011;18343;50.152;8.182;2023-04-29T12:46:15;6.20;;;5.60;;
31770;SDS011;18343;50.152;8.182;2023-04-29T12:49:03;8.07;;;5.68;;
31770;SDS011;18343;50.152;8.182;2023-04-29T12:51:49;6.80;;;5.70;;
31770;SDS011;18343;50.152;8.182;2023-04-29T12:54:53;7.75;;;5.68;;
31770;SDS011;18343;50.152;8.182;2023-04-29T12:57:39;6.70;;;5.82;;
31770;SDS011;18343;50.152;8.182;2023-04-29T13:00:24;6.38;;;5.75;;
31770;SDS011;18343;50.152;8.182;2023-04-29T13:03:10;7.85;;;6.40;;
31770;SDS011;18343;50.152;8.182;2023-04-29T13:05:54;6.82;;;6.13;;
31770;SDS011;18343;50.152;8.182;2023-04-29T13:08:39;8.02;;;6.55;;
31770;SDS011;18343;50.152;8.182;2023-04-29T13:11:23;9.25;;;6.95;;
31770;SDS011;18343;50.152;8.182;2023-04-29T13:14:08;12.98;;;7.25;;
31770;SDS011;18343;50.152;8.182;2023-04-29T13:16:52;9.60;;;7.65;;
31770;SDS011;18343;50.152;8.182;2023-04-29T13:19:39;10.32;;;7.82;;
31770;SDS011;18343;50.152;8.182;2023-04-29T13:22:24;12.90;;;9.23;;
31770;SDS011;18343;50.152;8.182;2023-04-29T13:25:08;11.77;;;8.73;;
31770;SDS011;18343;50.152;8.182;2023-04-29T13:27:53;11.60;;;9.30;;
31770;SDS011;18343;50.152;8.182;2023-04-29T13:30:38;15.43;;;9.95;;
31770;SDS011;18343;50.152;8.182;2023-04-29T13:33:23;15.38;;;10.27;;
31770;SDS011;18343;50.152;8.182;2023-04-29T13:36:09;13.70;;;11.00;;
31770;SDS011;18343;50.152;8.182;2023-04-29T13:38:53;16.05;;;10.90;;
31770;SDS011;18343;50.152;8.182;2023-04-29T13:41:38;14.20;;;10.88;;
31770;SDS011;18343;50.152;8.182;2023-04-29T13:44:23;13.82;;;10.77;;
31770;SDS011;18343;50.152;8.182;2023-04-29T13:47:08;13.75;;;10.20;;
31770;SDS011;18343;50.152;8.182;2023-04-29T13:49:53;15.75;;;10.73;;
31770;SDS011;18343;50.152;8.182;2023-04-29T13:52:39;16.23;;;12.05;;
31770;SDS011;18343;50.152;8.182;2023-04-29T13:55:24;14.73;;;10.73;;
31770;SDS011;18343;50.152;8.182;2023-04-29T13:58:08;15.23;;;12.13;;
31770;SDS011;18343;50.152;8.182;2023-04-29T14:00:53;14.32;;;11.20;;
31770;SDS011;18343;50.152;8.182;2023-04-29T14:03:38;13.85;;;10.75;;
31770;SDS011;18343;50.152;8.182;2023-04-29T14:06:22;16.00;;;11.77;;
31770;SDS011;18343;50.152;8.182;2023-04-29T14:09:09;15.32;;;10.00;;
31770;SDS011;18343;50.152;8.182;2023-04-29T14:11:53;15.73;;;11.90;;
31770;SDS011;18343;50.152;8.182;2023-04-29T14:14:38;17.30;;;11.45;;
31770;SDS011;18343;50.152;8.182;2023-04-29T14:17:23;17.08;;;12.00;;
31770;SDS011;18343;50.152;8.182;2023-04-29T14:20:08;18.90;;;10.80;;
31770;SDS011;18343;50.152;8.182;2023-04-29T14:22:53;16.58;;;11.57;;
31770;SDS011;18343;50.152;8.182;2023-04-29T14:25:39;17.65;;;11.43;;
31770;SDS011;18343;50.152;8.182;2023-04-29T14:28:24;15.40;;;10.50;;
31770;SDS011;18343;50.152;8.182;2023-04-29T14:31:08;12.88;;;9.60;;
31770;SDS011;18343;50.152;8.182;2023-04-29T14:33:53;14.77;;;10.27;;
31770;SDS011;18343;50.152;8.182;2023-04-29T14:36:39;15.38;;;10.20;;
31770;SDS011;18343;50.152;8.182;2023-04-29T14:39:23;13.63;;;10.35;;
31770;SDS011;18343;50.152;8.182;2023-04-29T14:42:09;15.40;;;11.18;;
31770;SDS011;18343;50.152;8.182;2023-04-29T14:44:54;17.50;;;11.77;;
31770;SDS011;18343;50.152;8.182;2023-04-29T14:47:39;14.65;;;10.52;;
31770;SDS011;18343;50.152;8.182;2023-04-29T14:50:23;16.80;;;11.13;;
31770;SDS011;18343;50.152;8.182;2023-04-29T14:53:08;13.77;;;9.93;;
31770;SDS011;18343;50.152;8.182;2023-04-29T14:55:53;16.42;;;10.55;;
31770;SDS011;18343;50.152;8.182;2023-04-29T14:58:39;14.02;;;9.98;;
31770;SDS011;18343;50.152;8.182;2023-04-29T15:01:24;14.45;;;10.82;;
31770;SDS011;18343;50.152;8.182;2023-04-29T15:04:09;14.48;;;9.90;;
31770;SDS011;18343;50.152;8.182;2023-04-29T15:06:53;13.68;;;10.30;;
31770;SDS011;18343;50.152;8.182;2023-04-29T15:09:39;15.05;;;10.25;;
31770;SDS011;18343;50.152;8.182;2023-04-29T15:12:24;15.02;;;10.10;;
31770;SDS011;18343;50.152;8.182;2023-04-29T15:15:11;14.45;;;10.05;;
31770;SDS011;18343;50.152;8.182;2023-04-29T15:17:55;19.75;;;11.48;;
31770;SDS011;18343;50.152;8.182;2023-04-29T15:20:40;17.20;;;12.02;;
31770;SDS011;18343;50.152;8.182;2023-04-29T15:23:24;17.33;;;12.02;;
31770;SDS011;18343;50.152;8.182;2023-04-29T15:26:10;18.42;;;11.88;;
31770;SDS011;18343;50.152;8.182;2023-04-29T15:28:54;18.50;;;11.82;;
31770;SDS011;18343;50.152;8.182;2023-04-29T15:31:40;19.20;;;12.52;;
31770;SDS011;18343;50.152;8.182;2023-04-29T15:34:25;21.15;;;13.70;;
31770;SDS011;18343;50.152;8.182;2023-04-29T15:37:10;21.92;;;13.50;;
31770;SDS011;18343;50.152;8.182;2023-04-29T15:39:54;21.95;;;13.52;;
31770;SDS011;18343;50.152;8.182;2023-04-29T15:42:41;23.60;;;14.13;;
31770;SDS011;18343;50.152;8.182;2023-04-29T15:45:25;21.33;;;14.32;;
31770;SDS011;18343;50.152;8.182;2023-04-29T15:48:11;27.98;;;14.48;;
31770;SDS011;18343;50.152;8.182;2023-04-29T15:50:56;21.52;;;14.15;;
31770;SDS011;18343;50.152;8.182;2023-04-29T15:53:42;24.75;;;15.27;;
31770;SDS011;18343;50.152;8.182;2023-04-29T15:56:27;20.83;;;13.50;;
31770;SDS011;18343;50.152;8.182;2023-04-29T15:59:15;21.25;;;14.20;;
31770;SDS011;18343;50.152;8.182;2023-04-29T16:02:00;29.55;;;16.13;;
31770;SDS011;18343;50.152;8.182;2023-04-29T16:04:45;21.35;;;12.98;;
31770;SDS011;18343;50.152;8.182;2023-04-29T16:07:30;19.80;;;13.20;;
31770;SDS011;18343;50.152;8.182;2023-04-29T16:10:15;17.83;;;12.10;;
31770;SDS011;18343;50.152;8.182;2023-04-29T16:13:00;16.20;;;12.00;;
31770;SDS011;18343;50.152;8.182;2023-04-29T16:15:44;16.65;;;11.27;;
31770;SDS011;18343;50.152;8.182;2023-04-29T16:18:29;16.50;;;11.52;;
31770;SDS011;18343;50.152;8.182;2023-04-29T16:21:16;16.67;;;10.98;;
31770;SDS011;18343;50.152;8.182;2023-04-29T16:24:01;17.00;;;11.95;;
31770;SDS011;18343;50.152;8.182;2023-04-29T16:26:45;17.58;;;12.07;;
31770;SDS011;18343;50.152;8.182;2023-04-29T16:29:30;16.15;;;11.30;;
31770;SDS011;18343;50.152;8.182;2023-04-29T16:32:14;18.30;;;11.88;;